Terminal Aerodrome Forecast
Issued by NWS

Home | Current Version | Previous Version | Text Only | Print | Product List | Glossary On
Versions: 1 2 3 4 5 6 7 8 9 10 11 12 13 14 15 16 17 18 19 20 21 22 23 24 25 26 27 28 29 30 31 32 33 34
000
FTUS43 KLOT 290100 AAA
TAFDPA
TAF AMD
KDPA 290137Z 2902/2924 16010KT 6SM BR FEW020 OVC100
     FM290500 17009KT 3SM BR FEW015 BKN120
     FM291400 19011KT P6SM FEW020 BKN200
     FM291600 20012G21KT P6SM FEW020 BKN200=

USA.gov is the U.S. government's official web portal to all federal, state and local government web resources and services.